Time;durP1;ratioP1;P1;durP2;ratioP2;P2;SDS_P1;SDS_P2;PMS_P1;PMS_P2;Temp;Humidity;BMP_temperature;BMP_pressure;BME280_temperature;BME280_humidity;BME280_pressure;Samples;Min_cycle;Max_cycle;Signal;HPM_P1;HPM_P2
2023/08/10 00:00:50;;;;;;;0.00;0.00;;;;;;;-144.99;100.00;67352.69;4994852;28;20216;-81
2023/08/10 00:03:15;;;;;;;0.00;0.00;;;;;;;-144.99;100.00;67352.69;4995593;28;20173;-80
2023/08/10 00:05:41;;;;;;;0.00;0.00;;;;;;;-144.99;100.00;67352.69;4995958;28;20220;-80
2023/08/10 00:08:06;;;;;;;0.00;0.00;;;;;;;-144.99;100.00;67352.69;4996444;28;20189;-81
2023/08/10 00:10:31;;;;;;;0.10;0.10;;;;;;;-144.99;100.00;67352.69;4996204;28;20259;-79
2023/08/10 00:12:56;;;;;;;0.00;0.00;;;;;;;-144.99;100.00;67352.69;4995546;28;20185;-79
2023/08/10 00:15:22;;;;;;;0.10;0.10;;;;;;;-144.99;100.00;67352.69;4996126;28;20201;-80
2023/08/10 00:17:47;;;;;;;2.07;0.97;;;;;;;-144.99;100.00;67352.69;4994055;28;20188;-80
2023/08/10 00:20:12;;;;;;;0.63;0.63;;;;;;;-144.99;100.00;67352.69;4993936;28;20212;-79
2023/08/10 00:22:38;;;;;;;0.10;0.10;;;;;;;-144.99;100.00;67352.69;4990867;28;20683;-79
2023/08/10 00:25:05;;;;;;;0.00;0.00;;;;;;;-144.99;100.00;67352.69;4992220;28;20208;-79
2023/08/10 00:27:30;;;;;;;0.00;0.00;;;;;;;-144.99;100.00;67352.69;4991031;28;20188;-79
2023/08/10 00:29:56;;;;;;;0.73;0.73;;;;;;;-144.99;100.00;67352.69;4992372;28;20187;-79
2023/08/10 00:32:21;;;;;;;0.10;0.10;;;;;;;-144.99;100.00;67352.69;4992244;28;20181;-79
2023/08/10 00:34:47;;;;;;;0.00;0.00;;;;;;;-144.99;100.00;67352.69;4992110;28;20204;-79
2023/08/10 00:37:13;;;;;;;0.03;0.03;;;;;;;-144.99;100.00;67352.69;4992401;28;20199;-79
2023/08/10 00:39:39;;;;;;;0.00;0.00;;;;;;;-144.99;100.00;67352.69;4992423;28;20715;-79
2023/08/10 00:42:04;;;;;;;0.07;0.07;;;;;;;-144.99;100.00;67352.69;4992124;28;20177;-79
2023/08/10 00:44:29;;;;;;;0.10;0.10;;;;;;;-144.99;100.00;67352.69;4991565;28;20255;-79
2023/08/10 00:46:55;;;;;;;0.30;0.30;;;;;;;-144.99;100.00;67352.69;4992362;28;20180;-79
2023/08/10 00:49:21;;;;;;;0.00;0.00;;;;;;;-144.99;100.00;67352.69;4990873;28;20212;-79
2023/08/10 00:51:47;;;;;;;0.00;0.00;;;;;;;-144.99;100.00;67352.69;4992090;28;20181;-79
2023/08/10 00:54:12;;;;;;;0.10;0.10;;;;;;;-144.99;100.00;67352.69;4991560;28;20201;-79
2023/08/10 00:56:38;;;;;;;0.63;0.63;;;;;;;-144.99;100.00;67352.69;4992379;28;20181;-79
2023/08/10 00:59:03;;;;;;;0.10;0.10;;;;;;;-144.99;100.00;67352.69;4992403;28;20185;-79
2023/08/10 01:01:29;;;;;;;0.13;0.13;;;;;;;-144.99;100.00;67352.69;4991206;28;20184;-79
2023/08/10 01:03:54;;;;;;;0.20;0.20;;;;;;;-144.99;100.00;67352.69;5006625;28;20212;-79
2023/08/10 01:06:25;;;;;;;0.10;0.10;;;;;;;-144.99;100.00;67352.69;4991017;28;20177;-79
2023/08/10 01:09:02;;;;;;;0.00;0.00;;;;;;;-144.99;100.00;67352.69;4992928;28;20195;-79
2023/08/10 01:11:39;;;;;;;0.30;0.30;;;;;;;-144.99;100.00;67352.69;4995024;28;20267;-79
2023/08/10 01:14:17;;;;;;;0.23;0.23;;;;;;;-144.99;100.00;67352.69;4995239;28;20208;-79
2023/08/10 01:16:43;;;;;;;0.10;0.10;;;;;;;-144.99;100.00;67352.69;5011258;28;20185;-79
2023/08/10 01:19:34;;;;;;;0.60;0.60;;;;;;;-144.99;100.00;67352.69;5010968;28;20192;-79
2023/08/10 01:22:31;;;;;;;0.30;0.30;;;;;;;-144.99;100.00;67352.69;4986211;28;20192;-79
2023/08/10 01:25:00;;;;;;;0.00;0.00;;;;;;;-144.99;100.00;67352.69;4995461;28;20275;-79
2023/08/10 01:27:27;;;;;;;0.10;0.10;;;;;;;-144.99;100.00;67352.69;4995730;28;20181;-79
2023/08/10 01:29:52;;;;;;;0.53;0.53;;;;;;;-144.99;100.00;67352.69;4995818;28;20184;-80
2023/08/10 01:32:18;;;;;;;0.10;0.10;;;;;;;-144.99;100.00;67352.69;4993995;28;20181;-80
2023/08/10 01:34:45;;;;;;;0.00;0.00;;;;;;;-144.99;100.00;67352.69;4995512;28;20203;-79
2023/08/10 01:37:10;;;;;;;0.13;0.13;;;;;;;-144.99;100.00;67352.69;4995495;28;20763;-79
2023/08/10 01:39:35;;;;;;;0.73;0.37;;;;;;;-144.99;100.00;67352.69;4995693;28;20189;-79
2023/08/10 01:42:00;;;;;;;3.20;0.40;;;;;;;-144.99;100.00;67352.69;4993985;28;20251;-79
2023/08/10 01:44:26;;;;;;;0.57;0.57;;;;;;;-144.99;100.00;67352.69;4995035;28;20197;-80
2023/08/10 01:46:53;;;;;;;0.00;0.00;;;;;;;-144.99;100.00;67352.69;4995202;28;20188;-79
2023/08/10 01:49:22;;;;;;;0.00;0.00;;;;;;;-144.99;100.00;67352.69;4998282;28;20663;-80
2023/08/10 01:51:49;;;;;;;0.00;0.00;;;;;;;-144.99;100.00;67352.69;4999478;28;20235;-81
2023/08/10 01:54:16;;;;;;;0.00;0.00;;;;;;;-144.99;100.00;67352.69;4999373;28;20243;-80
2023/08/10 01:56:42;;;;;;;0.50;0.37;;;;;;;-144.99;100.00;67352.69;5000081;28;20187;-80
2023/08/10 01:59:08;;;;;;;0.30;0.30;;;;;;;-144.99;100.00;67352.69;4999526;28;20177;-81
2023/08/10 02:01:33;;;;;;;0.03;0.03;;;;;;;-144.99;100.00;67352.69;4999155;28;20207;-80
2023/08/10 02:03:59;;;;;;;0.00;0.00;;;;;;;-144.99;100.00;67352.69;4998541;28;20228;-81
2023/08/10 02:06:24;;;;;;;0.07;0.07;;;;;;;-144.99;100.00;67352.69;4999363;28;20177;-80
2023/08/10 02:08:49;;;;;;;0.30;0.30;;;;;;;-144.99;100.00;67352.69;4998935;28;20224;-80
2023/08/10 02:11:15;;;;;;;0.00;0.00;;;;;;;-144.99;100.00;67352.69;4999124;28;20212;-80
2023/08/10 02:13:40;;;;;;;0.00;0.00;;;;;;;-144.99;100.00;67352.69;4998209;28;20185;-81
2023/08/10 02:16:05;;;;;;;0.23;0.23;;;;;;;-144.99;100.00;67352.69;4999015;28;20185;-80
2023/08/10 02:18:31;;;;;;;0.00;0.00;;;;;;;-144.99;100.00;67352.69;4997240;28;20189;-79
2023/08/10 02:20:57;;;;;;;0.00;0.00;;;;;;;-144.99;100.00;67352.69;4997583;28;20218;-81
2023/08/10 02:23:22;;;;;;;0.00;0.00;;;;;;;-144.99;100.00;67352.69;4998084;28;20181;-80
2023/08/10 02:25:47;;;;;;;0.10;0.10;;;;;;;-144.99;100.00;67352.69;4996987;28;20205;-79
2023/08/10 02:28:13;;;;;;;0.00;0.00;;;;;;;-144.99;100.00;67352.69;4997009;28;20229;-81
2023/08/10 02:30:39;;;;;;;0.00;0.00;;;;;;;-144.99;100.00;67352.69;4998172;28;20183;-81
2023/08/10 02:33:05;;;;;;;0.20;0.20;;;;;;;-144.99;100.00;67352.69;4996276;28;20180;-81
2023/08/10 02:35:30;;;;;;;0.10;0.10;;;;;;;-144.99;100.00;67352.69;4996748;28;20185;-80
2023/08/10 02:37:55;;;;;;;0.00;0.00;;;;;;;-144.99;100.00;67352.69;4998294;28;20185;-81
2023/08/10 02:40:21;;;;;;;0.00;0.00;;;;;;;-144.99;100.00;67352.69;4998342;28;20185;-80
2023/08/10 02:42:47;;;;;;;0.47;0.47;;;;;;;-144.99;100.00;67352.69;4997944;28;20208;-79
2023/08/10 02:45:13;;;;;;;0.17;0.17;;;;;;;-144.99;100.00;67352.69;4998042;28;20205;-80
2023/08/10 02:47:38;;;;;;;0.00;0.00;;;;;;;-144.99;100.00;67352.69;4997468;28;20710;-81
2023/08/10 02:50:07;;;;;;;0.87;0.87;;;;;;;-144.99;100.00;67352.69;4997725;28;20711;-79
2023/08/10 02:52:33;;;;;;;0.00;0.00;;;;;;;-144.99;100.00;67352.69;4997150;28;20730;-80
2023/08/10 02:54:58;;;;;;;0.40;0.30;;;;;;;-144.99;100.00;67352.69;4998062;28;20197;-79
2023/08/10 02:57:24;;;;;;;0.10;0.10;;;;;;;-144.99;100.00;67352.69;4997886;28;20191;-79
2023/08/10 02:59:49;;;;;;;0.70;0.57;;;;;;;-144.99;100.00;67352.69;4996637;28;20271;-80
2023/08/10 03:02:17;;;;;;;0.00;0.00;;;;;;;-144.99;100.00;67352.69;4996053;28;20177;-80
2023/08/10 03:04:43;;;;;;;0.00;0.00;;;;;;;-144.99;100.00;67352.69;4995692;28;20205;-80
2023/08/10 03:07:08;;;;;;;0.10;0.10;;;;;;;-144.99;100.00;67352.69;4997430;28;20734;-81
2023/08/10 03:09:33;;;;;;;0.50;0.50;;;;;;;-144.99;100.00;67352.69;4997257;28;20669;-79
2023/08/10 03:11:58;;;;;;;0.47;0.47;;;;;;;-144.99;100.00;67352.69;4997169;28;20181;-81
2023/08/10 03:14:24;;;;;;;1.60;0.50;;;;;;;-144.99;100.00;67352.69;4996696;28;20193;-80
2023/08/10 03:16:49;;;;;;;0.10;0.10;;;;;;;-144.99;100.00;67352.69;4997047;28;20644;-79
2023/08/10 03:19:15;;;;;;;0.00;0.00;;;;;;;-144.99;100.00;67352.69;4996926;28;20207;-80
2023/08/10 03:21:40;;;;;;;0.17;0.17;;;;;;;-144.99;100.00;67352.69;4996668;28;20281;-80
2023/08/10 03:24:05;;;;;;;0.00;0.00;;;;;;;-144.99;100.00;67352.69;4996327;28;20232;-80
2023/08/10 03:26:31;;;;;;;0.00;0.00;;;;;;;-144.99;100.00;67352.69;4996880;28;20830;-79
2023/08/10 03:28:56;;;;;;;0.43;0.43;;;;;;;-144.99;100.00;67352.69;4997019;28;20565;-79
2023/08/10 03:31:23;;;;;;;0.57;0.57;;;;;;;-144.99;100.00;67352.69;4996166;28;20205;-79
2023/08/10 03:33:49;;;;;;;0.00;0.00;;;;;;;-144.99;100.00;67352.69;4995497;28;20208;-79
2023/08/10 03:36:15;;;;;;;0.33;0.33;;;;;;;-144.99;100.00;67352.69;4995387;28;20177;-80
2023/08/10 03:38:43;;;;;;;0.00;0.00;;;;;;;-144.99;100.00;67352.69;4996878;28;20603;-80
2023/08/10 03:41:08;;;;;;;0.00;0.00;;;;;;;-144.99;100.00;67352.69;4994893;28;20181;-80
2023/08/10 03:43:33;;;;;;;0.00;0.00;;;;;;;-144.99;100.00;67352.69;4992983;28;20177;-78
2023/08/10 03:46:02;;;;;;;0.00;0.00;;;;;;;-144.99;100.00;67352.69;4993022;28;20575;-79
2023/08/10 03:48:27;;;;;;;0.00;0.00;;;;;;;-144.99;100.00;67352.69;4993221;28;20176;-79
2023/08/10 03:50:52;;;;;;;0.00;0.00;;;;;;;-144.99;100.00;67352.69;4992949;28;20180;-79
2023/08/10 03:53:18;;;;;;;0.00;0.00;;;;;;;-144.99;100.00;67352.69;4991214;28;20281;-79
2023/08/10 03:55:43;;;;;;;0.00;0.00;;;;;;;-144.99;100.00;67352.69;4991799;28;20263;-79
2023/08/10 03:58:08;;;;;;;0.00;0.00;;;;;;;-144.99;100.00;67352.69;4993036;28;20173;-79
2023/08/10 04:00:34;;;;;;;0.30;0.30;;;;;;;-144.99;100.00;67352.69;4991890;28;20185;-79
2023/08/10 04:02:59;;;;;;;6.10;1.40;;;;;;;-144.99;100.00;67352.69;4992411;28;20184;-79
2023/08/10 04:05:27;;;;;;;0.00;0.00;;;;;;;-144.99;100.00;67352.69;4992840;28;20246;-79
2023/08/10 04:07:52;;;;;;;0.10;0.10;;;;;;;-144.99;100.00;67352.69;4992882;28;20193;-79
2023/08/10 04:10:20;;;;;;;0.00;0.00;;;;;;;-144.99;100.00;67352.69;4992899;28;20663;-79
2023/08/10 04:12:45;;;;;;;0.00;0.00;;;;;;;-144.99;100.00;67352.69;4991012;28;20281;-79
2023/08/10 04:15:11;;;;;;;0.00;0.00;;;;;;;-144.99;100.00;67352.69;4999555;28;20284;-79
2023/08/10 04:17:37;;;;;;;1.30;1.07;;;;;;;-144.99;100.00;67352.69;4992767;28;20173;-79
2023/08/10 04:20:08;;;;;;;0.00;0.00;;;;;;;-144.99;100.00;67352.69;4992026;28;20264;-79
2023/08/10 04:22:33;;;;;;;0.00;0.00;;;;;;;-144.99;100.00;67352.69;4991063;28;20239;-79
2023/08/10 04:24:58;;;;;;;0.00;0.00;;;;;;;-144.99;100.00;67352.69;4992629;28;20213;-79
2023/08/10 04:27:23;;;;;;;0.10;0.10;;;;;;;-144.99;100.00;67352.69;4992986;28;20177;-79
2023/08/10 04:29:49;;;;;;;0.00;0.00;;;;;;;-144.99;100.00;67352.69;4993006;28;20185;-78
2023/08/10 04:32:14;;;;;;;0.00;0.00;;;;;;;-144.99;100.00;67352.69;4994531;28;20173;-80
2023/08/10 04:34:39;;;;;;;0.00;0.00;;;;;;;-144.99;100.00;67352.69;4995894;28;20201;-79
2023/08/10 04:37:05;;;;;;;5.63;5.43;;;;;;;-144.99;100.00;67352.69;4996650;28;20240;-81
2023/08/10 04:39:32;;;;;;;0.00;0.00;;;;;;;-144.99;100.00;67352.69;4998081;28;20200;-81
2023/08/10 04:41:57;;;;;;;0.00;0.00;;;;;;;-144.99;100.00;67352.69;4997198;28;20176;-81
2023/08/10 04:44:23;;;;;;;0.00;0.00;;;;;;;-144.99;100.00;67352.69;4998731;28;20205;-80
2023/08/10 04:46:48;;;;;;;0.00;0.00;;;;;;;-144.99;100.00;67352.69;5001159;28;20551;-81
2023/08/10 04:49:13;;;;;;;0.00;0.00;;;;;;;-144.99;100.00;67352.69;5001590;28;20425;-81
2023/08/10 04:51:39;;;;;;;0.00;0.00;;;;;;;-144.99;100.00;67352.69;5001143;28;20192;-80
2023/08/10 04:54:04;;;;;;;0.00;0.00;;;;;;;-144.99;100.00;67352.69;4999607;28;20213;-81
2023/08/10 04:56:31;;;;;;;0.00;0.00;;;;;;;-144.99;100.00;67352.69;5001341;28;20727;-80
2023/08/10 04:58:56;;;;;;;0.00;0.00;;;;;;;-144.99;100.00;67352.69;5000534;28;20209;-81
2023/08/10 05:01:21;;;;;;;0.10;0.10;;;;;;;-144.99;100.00;67352.69;5000308;28;20205;-80
2023/08/10 05:03:46;;;;;;;0.00;0.00;;;;;;;-144.99;100.00;67352.69;4999271;28;20672;-79
2023/08/10 05:06:12;;;;;;;0.00;0.00;;;;;;;-144.99;100.00;67352.69;5000669;28;20235;-80
2023/08/10 05:08:37;;;;;;;0.00;0.00;;;;;;;-144.99;100.00;67352.69;5000854;28;20192;-80
2023/08/10 05:11:03;;;;;;;0.00;0.00;;;;;;;-144.99;100.00;67352.69;5000932;28;20272;-81
2023/08/10 05:13:29;;;;;;;0.00;0.00;;;;;;;-144.99;100.00;67352.69;4999395;28;20226;-81
2023/08/10 05:15:54;;;;;;;0.00;0.00;;;;;;;-144.99;100.00;67352.69;4998910;28;20186;-80
2023/08/10 05:18:23;;;;;;;0.00;0.00;;;;;;;-144.99;100.00;67352.69;5000079;28;20189;-81
2023/08/10 05:20:49;;;;;;;0.10;0.10;;;;;;;-144.99;100.00;67352.69;5000422;28;20181;-80
2023/08/10 05:23:15;;;;;;;0.00;0.00;;;;;;;-144.99;100.00;67352.69;4997012;28;20192;-80
2023/08/10 05:25:41;;;;;;;0.00;0.00;;;;;;;-144.99;100.00;67352.69;4998419;28;20280;-80
2023/08/10 05:28:06;;;;;;;0.00;0.00;;;;;;;-144.99;100.00;67352.69;4999959;28;20196;-80
2023/08/10 05:30:32;;;;;;;0.00;0.00;;;;;;;-144.99;100.00;67352.69;5000096;28;20189;-81
2023/08/10 05:32:57;;;;;;;0.00;0.00;;;;;;;-144.99;100.00;67352.69;4999626;28;20185;-80
2023/08/10 05:35:23;;;;;;;0.00;0.00;;;;;;;-144.99;100.00;67352.69;4999564;28;20205;-79
2023/08/10 05:37:49;;;;;;;0.00;0.00;;;;;;;-144.99;100.00;67352.69;4997787;28;20185;-80
2023/08/10 05:40:14;;;;;;;0.00;0.00;;;;;;;-144.99;100.00;67352.69;4998404;28;20185;-80
2023/08/10 05:42:41;;;;;;;0.00;0.00;;;;;;;-144.99;100.00;67352.69;4995643;28;20647;-81
2023/08/10 05:45:06;;;;;;;0.00;0.00;;;;;;;-144.99;100.00;67352.69;4996836;28;20212;-81
2023/08/10 05:47:33;;;;;;;0.00;0.00;;;;;;;-144.99;100.00;67352.69;4995911;28;20177;-81
2023/08/10 05:49:59;;;;;;;0.00;0.00;;;;;;;-144.99;100.00;67352.69;4996306;28;20181;-80
2023/08/10 05:52:24;;;;;;;0.00;0.00;;;;;;;-144.99;100.00;67352.69;4995074;28;20195;-80
2023/08/10 05:54:49;;;;;;;0.10;0.10;;;;;;;-144.99;100.00;67352.69;4996342;28;20201;-81
2023/08/10 05:57:14;;;;;;;0.00;0.00;;;;;;;-144.99;100.00;67352.69;4994927;28;20185;-80
2023/08/10 05:59:40;;;;;;;0.00;0.00;;;;;;;-144.99;100.00;67352.69;4996304;28;20182;-80
2023/08/10 06:02:06;;;;;;;0.00;0.00;;;;;;;-144.99;100.00;67352.69;4995590;28;20648;-81
2023/08/10 06:04:31;;;;;;;1.23;1.17;;;;;;;-144.99;100.00;67352.69;4998965;28;20233;-81
2023/08/10 06:06:57;;;;;;;0.00;0.00;;;;;;;-144.99;100.00;67352.69;5000140;28;20189;-81
2023/08/10 06:09:22;;;;;;;0.30;0.30;;;;;;;-144.99;100.00;67352.69;5002181;28;20232;-81
2023/08/10 06:11:47;;;;;;;0.00;0.00;;;;;;;-144.99;100.00;67352.69;4996564;28;20307;-81
2023/08/10 06:14:13;;;;;;;0.00;0.00;;;;;;;-144.99;100.00;67352.69;4996205;28;20197;-80
2023/08/10 06:16:38;;;;;;;0.00;0.00;;;;;;;-144.99;100.00;67352.69;4996017;28;20189;-81
2023/08/10 06:19:04;;;;;;;0.20;0.20;;;;;;;-144.99;100.00;67352.69;4995990;28;20201;-80
2023/08/10 06:21:30;;;;;;;0.07;0.07;;;;;;;-144.99;100.00;67352.69;4996543;28;20177;-81
2023/08/10 06:23:55;;;;;;;0.83;0.77;;;;;;;-144.99;100.00;67352.69;4993938;28;20549;-80
2023/08/10 06:26:20;;;;;;;3.87;1.10;;;;;;;-144.99;100.00;67352.69;4995424;28;20181;-80
2023/08/10 06:28:46;;;;;;;0.00;0.00;;;;;;;-144.99;100.00;67352.69;4996827;28;20181;-81
2023/08/10 06:31:13;;;;;;;0.83;0.83;;;;;;;-144.99;100.00;67352.69;4996598;28;20663;-81
2023/08/10 06:33:38;;;;;;;0.00;0.00;;;;;;;-144.99;100.00;67352.69;4995418;28;20196;-81
2023/08/10 06:36:06;;;;;;;0.20;0.20;;;;;;;-144.99;100.00;67352.69;4995943;28;20170;-82
2023/08/10 06:38:35;;;;;;;0.77;0.77;;;;;;;-144.99;100.00;67352.69;4996326;28;20634;-81
2023/08/10 06:41:01;;;;;;;0.20;0.20;;;;;;;-144.99;100.00;67352.69;4996362;28;20190;-81
2023/08/10 06:43:26;;;;;;;0.90;0.90;;;;;;;-144.99;100.00;67352.69;4995159;28;20181;-82
2023/08/10 06:45:51;;;;;;;0.67;0.57;;;;;;;-144.99;100.00;67352.69;4994519;28;20695;-80
2023/08/10 06:48:17;;;;;;;0.57;0.57;;;;;;;-144.99;100.00;67352.69;4992706;28;20181;-81
2023/08/10 06:50:43;;;;;;;0.70;0.70;;;;;;;-144.99;100.00;67352.69;4991540;28;20679;-81
2023/08/10 06:53:08;;;;;;;1.07;1.07;;;;;;;-144.99;100.00;67352.69;4991808;28;20193;-81
2023/08/10 06:55:34;;;;;;;0.83;0.83;;;;;;;-144.99;100.00;67352.69;4992446;28;20215;-80
2023/08/10 06:57:59;;;;;;;0.97;0.93;;;;;;;-144.99;100.00;67352.69;4992343;28;20260;-81
2023/08/10 07:00:25;;;;;;;1.23;1.23;;;;;;;-144.99;100.00;67352.69;4991787;28;20234;-81
2023/08/10 07:02:53;;;;;;;4.73;2.53;;;;;;;-144.99;100.00;67352.69;4990503;28;20182;-80
2023/08/10 07:05:31;;;;;;;0.60;0.60;;;;;;;-144.99;100.00;67352.69;4992446;28;20211;-80
2023/08/10 07:07:57;;;;;;;0.37;0.37;;;;;;;-144.99;100.00;67352.69;4990290;28;20189;-81
2023/08/10 07:10:22;;;;;;;0.53;0.47;;;;;;;-144.99;100.00;67352.69;4989624;28;20239;-81
2023/08/10 07:12:48;;;;;;;1.13;0.77;;;;;;;-144.99;100.00;67352.69;4987008;28;20719;-80
2023/08/10 07:15:13;;;;;;;0.30;0.30;;;;;;;-144.99;100.00;67352.69;4990420;28;20562;-81
2023/08/10 07:17:39;;;;;;;0.40;0.40;;;;;;;-144.99;100.00;67352.69;4993976;28;20196;-82
2023/08/10 07:20:06;;;;;;;0.10;0.10;;;;;;;-144.99;100.00;67352.69;4993878;28;20178;-81
2023/08/10 07:22:32;;;;;;;1.47;1.37;;;;;;;-144.99;100.00;67352.69;4994715;28;20177;-81
2023/08/10 07:25:03;;;;;;;0.30;0.30;;;;;;;-144.99;100.00;67352.69;4994454;28;20202;-82
2023/08/10 07:27:28;;;;;;;0.43;0.43;;;;;;;-144.99;100.00;67352.69;4994020;28;20200;-81
2023/08/10 07:29:53;;;;;;;0.37;0.37;;;;;;;-144.99;100.00;67352.69;4991687;28;20178;-80
2023/08/10 07:32:19;;;;;;;0.97;0.97;;;;;;;-144.99;100.00;67352.69;4988555;28;20223;-82
2023/08/10 07:34:44;;;;;;;0.43;0.43;;;;;;;-144.99;100.00;67352.69;4994583;28;20284;-81
2023/08/10 07:37:10;;;;;;;0.00;0.00;;;;;;;-144.99;100.00;67352.69;4997673;28;20180;-82
2023/08/10 07:39:36;;;;;;;0.80;0.70;;;;;;;-144.99;100.00;67352.69;4995586;28;20216;-81
2023/08/10 07:42:01;;;;;;;0.53;0.40;;;;;;;-144.99;100.00;67352.69;4994612;28;20189;-82
2023/08/10 07:44:27;;;;;;;0.30;0.30;;;;;;;-144.99;100.00;67352.69;4992618;28;20204;-81
2023/08/10 07:46:52;;;;;;;0.00;0.00;;;;;;;-144.99;100.00;67352.69;4992899;28;20242;-82
2023/08/10 07:49:18;;;;;;;0.00;0.00;;;;;;;-144.99;100.00;67352.69;4995730;28;20627;-82
2023/08/10 07:51:47;;;;;;;0.30;0.30;;;;;;;-144.99;100.00;67352.69;4994389;28;20181;-82
2023/08/10 07:54:13;;;;;;;0.10;0.10;;;;;;;-144.99;100.00;67352.69;4996349;28;20271;-81
2023/08/10 07:56:38;;;;;;;0.10;0.10;;;;;;;-144.99;100.00;67352.69;4977923;28;20208;-80
2023/08/10 07:59:03;;;;;;;0.43;0.23;;;;;;;-144.99;100.00;67352.69;4995197;28;20711;-80
2023/08/10 08:01:29;;;;;;;0.00;0.00;;;;;;;-144.99;100.00;67352.69;4994426;28;20184;-80
2023/08/10 08:03:54;;;;;;;0.00;0.00;;;;;;;-144.99;100.00;67352.69;4993283;28;20205;-80
2023/08/10 08:06:19;;;;;;;0.17;0.17;;;;;;;-144.99;100.00;67352.69;4994740;28;20220;-80
2023/08/10 08:08:45;;;;;;;0.13;0.13;;;;;;;-144.99;100.00;67352.69;4995125;28;20200;-80
2023/08/10 08:11:10;;;;;;;0.10;0.10;;;;;;;-144.99;100.00;67352.69;4995168;28;20188;-80
2023/08/10 08:13:36;;;;;;;0.00;0.00;;;;;;;-144.99;100.00;67352.69;4993815;28;20196;-81
2023/08/10 08:16:01;;;;;;;0.70;0.70;;;;;;;-144.99;100.00;67352.69;4992097;28;20250;-81
2023/08/10 08:18:45;;;;;;;0.73;0.73;;;;;;;-144.99;100.00;67352.69;4994245;28;20272;-81
2023/08/10 08:21:13;;;;;;;0.00;0.00;;;;;;;-144.99;100.00;67352.69;4991756;28;20239;-80
2023/08/10 08:23:38;;;;;;;0.83;0.20;;;;;;;-144.99;100.00;67352.69;4993007;28;20200;-80
2023/08/10 08:26:04;;;;;;;0.00;0.00;;;;;;;-144.99;100.00;67352.69;4993113;28;20205;-82
2023/08/10 08:28:29;;;;;;;1.10;0.77;;;;;;;-144.99;100.00;67352.69;4995575;28;20189;-80
2023/08/10 08:30:54;;;;;;;0.20;0.20;;;;;;;-144.99;100.00;67352.69;4995559;28;20177;-79
2023/08/10 08:33:20;;;;;;;0.00;0.00;;;;;;;-144.99;100.00;67352.69;4995176;28;20181;-79
2023/08/10 08:35:47;;;;;;;0.00;0.00;;;;;;;-144.99;100.00;67352.69;4994282;28;20288;-79
2023/08/10 08:38:17;;;;;;;0.00;0.00;;;;;;;-144.99;100.00;67352.69;5009805;28;20200;-80
2023/08/10 08:40:43;;;;;;;0.53;0.50;;;;;;;-144.99;100.00;67352.69;4994287;28;20557;-80
2023/08/10 08:43:10;;;;;;;0.00;0.00;;;;;;;-144.99;100.00;67352.69;4993268;28;20179;-79
2023/08/10 08:45:35;;;;;;;0.00;0.00;;;;;;;-144.99;100.00;67352.69;4993780;28;20236;-80
2023/08/10 08:48:03;;;;;;;0.00;0.00;;;;;;;-144.99;100.00;67352.69;4992320;28;20181;-79
2023/08/10 08:50:29;;;;;;;0.20;0.20;;;;;;;-144.99;100.00;67352.69;4993169;28;20185;-79
2023/08/10 08:52:55;;;;;;;0.37;0.37;;;;;;;-144.99;100.00;67352.69;4993001;28;20235;-80
2023/08/10 08:55:20;;;;;;;0.33;0.33;;;;;;;-144.99;100.00;67352.69;5024627;23;20239;-78
2023/08/10 08:57:47;;;;;;;0.00;0.00;;;;;;;-144.99;100.00;67352.69;5014921;28;20764;-79
2023/08/10 09:00:13;;;;;;;0.30;0.30;;;;;;;-144.99;100.00;67352.69;5013929;28;20176;-79
2023/08/10 09:02:38;;;;;;;0.83;0.60;;;;;;;-144.99;100.00;67352.69;5015807;28;20649;-77
2023/08/10 09:05:04;;;;;;;0.00;0.00;;;;;;;-144.99;100.00;67352.69;5015286;28;20215;-78
2023/08/10 09:07:30;;;;;;;0.50;0.30;;;;;;;-144.99;100.00;67352.69;5015987;28;20204;-79
2023/08/10 09:09:56;;;;;;;0.67;0.47;;;;;;;-144.99;100.00;67352.69;5015226;28;20180;-78
2023/08/10 09:12:27;;;;;;;0.10;0.10;;;;;;;-144.99;100.00;67352.69;5014182;28;20179;-78
2023/08/10 09:15:08;;;;;;;1.77;0.90;;;;;;;-144.99;100.00;67352.69;5022085;28;20669;-77
2023/08/10 09:17:36;;;;;;;0.00;0.00;;;;;;;-144.99;100.00;67352.69;5031710;28;20180;-78
2023/08/10 09:20:04;;;;;;;0.50;0.50;;;;;;;-144.99;100.00;67352.69;5021796;28;20652;-78
2023/08/10 09:22:33;;;;;;;0.30;0.30;;;;;;;-144.99;100.00;67352.69;5014143;28;20212;-78
2023/08/10 09:24:58;;;;;;;0.00;0.00;;;;;;;-144.99;100.00;67352.69;5014336;28;20208;-79
2023/08/10 09:27:29;;;;;;;20.97;1.40;;;;;;;-144.99;100.00;67352.69;5022189;28;20239;-78
2023/08/10 09:29:59;;;;;;;0.40;0.40;;;;;;;-144.99;100.00;67352.69;5015850;28;20180;-78
2023/08/10 09:32:25;;;;;;;2.57;0.77;;;;;;;-144.99;100.00;67352.69;5018678;28;20173;-78
2023/08/10 09:34:52;;;;;;;0.20;0.10;;;;;;;-144.99;100.00;67352.69;5025882;28;20250;-78
2023/08/10 09:37:18;;;;;;;0.07;0.07;;;;;;;-144.99;100.00;67352.69;5018657;28;20179;-78
2023/08/10 09:39:43;;;;;;;0.40;0.40;;;;;;;-144.99;100.00;67352.69;5019276;28;20184;-80
2023/08/10 09:42:09;;;;;;;1.80;0.67;;;;;;;-144.99;100.00;67352.69;5026038;28;20271;-78
2023/08/10 09:44:49;;;;;;;0.40;0.40;;;;;;;-144.99;100.00;67352.69;5018733;28;20188;-78
2023/08/10 09:47:15;;;;;;;0.00;0.00;;;;;;;-144.99;100.00;67352.69;5010784;28;20195;-78
2023/08/10 09:49:58;;;;;;;0.60;0.60;;;;;;;-144.99;100.00;67352.69;5025553;28;20644;-79
2023/08/10 09:52:25;;;;;;;0.00;0.00;;;;;;;-144.99;100.00;67352.69;5012219;28;20176;-78
2023/08/10 09:54:51;;;;;;;0.00;0.00;;;;;;;-144.99;100.00;67352.69;5018824;28;20658;-76
2023/08/10 09:57:21;;;;;;;0.00;0.00;;;;;;;-144.99;100.00;67352.69;5018613;28;20672;-78
2023/08/10 09:59:47;;;;;;;0.30;0.30;;;;;;;-144.99;100.00;67352.69;5019229;28;20524;-78
2023/08/10 10:02:14;;;;;;;0.00;0.00;;;;;;;-144.99;100.00;67352.69;5010997;28;20176;-78
2023/08/10 10:04:40;;;;;;;0.00;0.00;;;;;;;-144.99;100.00;67352.69;5019523;28;20279;-78
2023/08/10 10:07:07;;;;;;;5.73;0.13;;;;;;;-144.99;100.00;67352.69;5019990;28;20219;-78
2023/08/10 10:09:37;;;;;;;1.13;0.80;;;;;;;-144.99;100.00;67352.69;5020165;28;20235;-80
2023/08/10 10:12:10;;;;;;;0.27;0.27;;;;;;;-144.99;100.00;67352.69;5019273;28;20172;-79
2023/08/10 10:14:39;;;;;;;2.27;0.33;;;;;;;-144.99;100.00;67352.69;5017932;28;20179;-79
2023/08/10 10:17:06;;;;;;;0.63;0.20;;;;;;;-144.99;100.00;67352.69;5024561;28;20234;-79
2023/08/10 10:19:33;;;;;;;0.20;0.20;;;;;;;-144.99;100.00;67352.69;5018906;28;20177;-79
2023/08/10 10:22:00;;;;;;;0.00;0.00;;;;;;;-144.99;100.00;67352.69;5026082;28;20281;-78
2023/08/10 10:24:32;;;;;;;0.57;0.17;;;;;;;-144.99;100.00;67352.69;5026110;28;20208;-79
2023/08/10 10:27:04;;;;;;;0.00;0.00;;;;;;;-144.99;100.00;67352.69;5015135;28;20676;-78
2023/08/10 10:29:51;;;;;;;0.87;0.30;;;;;;;-144.99;100.00;67352.69;5013274;28;20259;-78
2023/08/10 10:32:21;;;;;;;0.20;0.20;;;;;;;-144.99;100.00;67352.69;5007374;28;20186;-78
2023/08/10 10:34:48;;;;;;;0.43;0.43;;;;;;;-144.99;100.00;67352.69;5020570;28;20708;-79
2023/08/10 10:37:14;;;;;;;0.00;0.00;;;;;;;-144.99;100.00;67352.69;5008417;28;20172;-78
2023/08/10 10:39:52;;;;;;;0.00;0.00;;;;;;;-144.99;100.00;67352.69;5007138;28;20173;-78
2023/08/10 10:42:19;;;;;;;0.00;0.00;;;;;;;-144.99;100.00;67352.69;5008211;28;20192;-78
2023/08/10 10:45:14;;;;;;;0.13;0.13;;;;;;;-144.99;100.00;67352.69;5032650;28;20200;-78
2023/08/10 10:47:46;;;;;;;0.00;0.00;;;;;;;-144.99;100.00;67352.69;5009565;28;20184;-78
2023/08/10 10:50:20;;;;;;;0.00;0.00;;;;;;;-144.99;100.00;67352.69;5016397;28;20258;-79
2023/08/10 10:52:54;;;;;;;0.00;0.00;;;;;;;-144.99;100.00;67352.69;5016332;28;20176;-78
2023/08/10 10:55:19;;;;;;;0.00;0.00;;;;;;;-144.99;100.00;67352.69;5008994;28;20196;-78
2023/08/10 10:57:47;;;;;;;0.00;0.00;;;;;;;-144.99;100.00;67352.69;5020446;28;20184;-78
2023/08/10 11:00:13;;;;;;;0.27;0.27;;;;;;;-144.99;100.00;67352.69;5017479;28;20191;-78
2023/08/10 11:02:39;;;;;;;0.00;0.00;;;;;;;-144.99;100.00;67352.69;5017705;28;20186;-79
2023/08/10 11:05:11;;;;;;;0.80;0.70;;;;;;;-144.99;100.00;67352.69;5015573;28;20256;-78
2023/08/10 11:07:44;;;;;;;0.00;0.00;;;;;;;-144.99;100.00;67352.69;5016257;28;20184;-79